sensor_id;sensor_type;location;lat;lon;timestamp;P1;durP1;ratioP1;P2;durP2;ratioP2
60873;SDS011;46715;40.642;-7.920;2023-06-22T00:00:16;12.93;;;8.37;;
60873;SDS011;46715;40.642;-7.920;2023-06-22T00:02:17;13.98;;;8.82;;
60873;SDS011;46715;40.642;-7.920;2023-06-22T00:04:18;13.18;;;8.60;;
60873;SDS011;46715;40.642;-7.920;2023-06-22T00:06:19;12.27;;;8.03;;
60873;SDS011;46715;40.642;-7.920;2023-06-22T00:08:19;14.17;;;8.47;;
60873;SDS011;46715;40.642;-7.920;2023-06-22T00:10:20;14.20;;;8.43;;
60873;SDS011;46715;40.642;-7.920;2023-06-22T00:12:21;17.03;;;8.13;;
60873;SDS011;46715;40.642;-7.920;2023-06-22T00:14:22;16.50;;;7.57;;
60873;SDS011;46715;40.642;-7.920;2023-06-22T00:16:22;11.37;;;7.90;;
60873;SDS011;46715;40.642;-7.920;2023-06-22T00:18:23;14.57;;;8.60;;
60873;SDS011;46715;40.642;-7.920;2023-06-22T00:20:28;14.00;;;8.38;;
60873;SDS011;46715;40.642;-7.920;2023-06-22T00:22:30;20.20;;;8.98;;
60873;SDS011;46715;40.642;-7.920;2023-06-22T00:24:31;15.83;;;9.43;;
60873;SDS011;46715;40.642;-7.920;2023-06-22T00:26:32;15.33;;;8.97;;
60873;SDS011;46715;40.642;-7.920;2023-06-22T00:28:34;17.45;;;9.00;;
60873;SDS011;46715;40.642;-7.920;2023-06-22T00:30:35;17.45;;;9.32;;
60873;SDS011;46715;40.642;-7.920;2023-06-22T00:32:36;16.10;;;9.67;;
60873;SDS011;46715;40.642;-7.920;2023-06-22T00:34:37;18.58;;;11.13;;
60873;SDS011;46715;40.642;-7.920;2023-06-22T00:36:38;17.30;;;9.93;;
60873;SDS011;46715;40.642;-7.920;2023-06-22T00:38:41;18.20;;;9.65;;
60873;SDS011;46715;40.642;-7.920;2023-06-22T00:40:42;17.15;;;9.95;;
60873;SDS011;46715;40.642;-7.920;2023-06-22T00:42:43;14.80;;;9.63;;
60873;SDS011;46715;40.642;-7.920;2023-06-22T00:44:45;15.68;;;10.50;;
60873;SDS011;46715;40.642;-7.920;2023-06-22T00:46:46;18.07;;;10.37;;
60873;SDS011;46715;40.642;-7.920;2023-06-22T00:48:47;18.80;;;10.93;;
60873;SDS011;46715;40.642;-7.920;2023-06-22T00:50:47;17.33;;;9.93;;
60873;SDS011;46715;40.642;-7.920;2023-06-22T00:52:52;17.38;;;9.95;;
60873;SDS011;46715;40.642;-7.920;2023-06-22T00:54:55;18.48;;;10.50;;
60873;SDS011;46715;40.642;-7.920;2023-06-22T00:56:57;21.52;;;10.27;;
60873;SDS011;46715;40.642;-7.920;2023-06-22T00:58:58;20.37;;;9.60;;
60873;SDS011;46715;40.642;-7.920;2023-06-22T01:01:00;16.52;;;9.65;;
60873;SDS011;46715;40.642;-7.920;2023-06-22T01:05:03;17.85;;;9.77;;
60873;SDS011;46715;40.642;-7.920;2023-06-22T01:09:15;19.33;;;10.20;;
60873;SDS011;46715;40.642;-7.920;2023-06-22T01:11:26;13.48;;;9.50;;
60873;SDS011;46715;40.642;-7.920;2023-06-22T01:13:37;15.48;;;8.90;;
60873;SDS011;46715;40.642;-7.920;2023-06-22T01:15:49;14.35;;;9.32;;
60873;SDS011;46715;40.642;-7.920;2023-06-22T01:17:57;15.50;;;9.40;;
60873;SDS011;46715;40.642;-7.920;2023-06-22T01:19:59;20.55;;;9.57;;
60873;SDS011;46715;40.642;-7.920;2023-06-22T01:22:05;21.35;;;9.52;;
60873;SDS011;46715;40.642;-7.920;2023-06-22T01:24:22;19.35;;;10.27;;
60873;SDS011;46715;40.642;-7.920;2023-06-22T01:28:50;15.98;;;9.68;;
60873;SDS011;46715;40.642;-7.920;2023-06-22T01:30:53;17.73;;;9.18;;
60873;SDS011;46715;40.642;-7.920;2023-06-22T01:35:07;17.77;;;10.02;;
60873;SDS011;46715;40.642;-7.920;2023-06-22T01:37:11;19.95;;;8.88;;
60873;SDS011;46715;40.642;-7.920;2023-06-22T01:39:13;23.17;;;10.07;;
60873;SDS011;46715;40.642;-7.920;2023-06-22T01:41:15;16.25;;;9.43;;
60873;SDS011;46715;40.642;-7.920;2023-06-22T01:43:21;19.58;;;10.68;;
60873;SDS011;46715;40.642;-7.920;2023-06-22T01:45:23;20.58;;;11.05;;
60873;SDS011;46715;40.642;-7.920;2023-06-22T01:49:25;22.63;;;10.10;;
60873;SDS011;46715;40.642;-7.920;2023-06-22T01:51:26;15.33;;;9.57;;
60873;SDS011;46715;40.642;-7.920;2023-06-22T01:53:27;19.03;;;9.30;;
60873;SDS011;46715;40.642;-7.920;2023-06-22T01:55:27;15.80;;;10.20;;
60873;SDS011;46715;40.642;-7.920;2023-06-22T01:57:28;19.80;;;10.50;;
60873;SDS011;46715;40.642;-7.920;2023-06-22T01:59:34;17.52;;;9.95;;
60873;SDS011;46715;40.642;-7.920;2023-06-22T02:01:44;18.98;;;10.70;;
60873;SDS011;46715;40.642;-7.920;2023-06-22T02:03:57;16.02;;;10.60;;
60873;SDS011;46715;40.642;-7.920;2023-06-22T02:06:06;19.00;;;10.27;;
60873;SDS011;46715;40.642;-7.920;2023-06-22T02:08:11;19.88;;;10.25;;
60873;SDS011;46715;40.642;-7.920;2023-06-22T02:10:19;16.08;;;9.05;;
60873;SDS011;46715;40.642;-7.920;2023-06-22T02:12:23;20.30;;;9.10;;
60873;SDS011;46715;40.642;-7.920;2023-06-22T02:14:27;14.23;;;8.93;;
60873;SDS011;46715;40.642;-7.920;2023-06-22T02:16:30;10.48;;;7.80;;
60873;SDS011;46715;40.642;-7.920;2023-06-22T02:18:31;12.55;;;8.65;;
60873;SDS011;46715;40.642;-7.920;2023-06-22T02:20:32;12.07;;;8.93;;
60873;SDS011;46715;40.642;-7.920;2023-06-22T02:22:33;17.47;;;10.17;;
60873;SDS011;46715;40.642;-7.920;2023-06-22T02:24:33;15.77;;;9.57;;
60873;SDS011;46715;40.642;-7.920;2023-06-22T02:26:34;16.83;;;10.27;;
60873;SDS011;46715;40.642;-7.920;2023-06-22T02:30:37;13.23;;;8.70;;
60873;SDS011;46715;40.642;-7.920;2023-06-22T02:32:37;12.03;;;8.00;;
60873;SDS011;46715;40.642;-7.920;2023-06-22T02:34:42;13.40;;;8.55;;
60873;SDS011;46715;40.642;-7.920;2023-06-22T02:36:50;13.20;;;9.05;;
60873;SDS011;46715;40.642;-7.920;2023-06-22T02:40:52;16.98;;;10.10;;
60873;SDS011;46715;40.642;-7.920;2023-06-22T02:42:53;17.70;;;9.77;;
60873;SDS011;46715;40.642;-7.920;2023-06-22T02:44:53;19.77;;;10.97;;
60873;SDS011;46715;40.642;-7.920;2023-06-22T02:46:55;25.20;;;10.73;;
60873;SDS011;46715;40.642;-7.920;2023-06-22T02:48:55;19.67;;;11.68;;
60873;SDS011;46715;40.642;-7.920;2023-06-22T02:50:56;20.30;;;12.03;;
60873;SDS011;46715;40.642;-7.920;2023-06-22T02:52:57;25.93;;;12.27;;
60873;SDS011;46715;40.642;-7.920;2023-06-22T02:54:58;16.15;;;11.55;;
60873;SDS011;46715;40.642;-7.920;2023-06-22T02:56:59;22.87;;;11.43;;
60873;SDS011;46715;40.642;-7.920;2023-06-22T02:59:04;20.55;;;11.48;;
60873;SDS011;46715;40.642;-7.920;2023-06-22T03:01:10;17.50;;;10.43;;
60873;SDS011;46715;40.642;-7.920;2023-06-22T03:03:15;20.73;;;11.18;;
60873;SDS011;46715;40.642;-7.920;2023-06-22T03:05:16;24.27;;;13.00;;
60873;SDS011;46715;40.642;-7.920;2023-06-22T03:07:19;22.55;;;11.32;;
60873;SDS011;46715;40.642;-7.920;2023-06-22T03:09:21;25.85;;;12.68;;
60873;SDS011;46715;40.642;-7.920;2023-06-22T03:11:21;26.50;;;12.60;;
60873;SDS011;46715;40.642;-7.920;2023-06-22T03:13:22;22.77;;;12.37;;
60873;SDS011;46715;40.642;-7.920;2023-06-22T03:15:25;25.90;;;13.43;;
60873;SDS011;46715;40.642;-7.920;2023-06-22T03:17:26;26.17;;;12.97;;
60873;SDS011;46715;40.642;-7.920;2023-06-22T03:19:27;23.50;;;12.63;;
60873;SDS011;46715;40.642;-7.920;2023-06-22T03:21:29;26.23;;;12.65;;
60873;SDS011;46715;40.642;-7.920;2023-06-22T03:23:34;26.75;;;13.13;;
60873;SDS011;46715;40.642;-7.920;2023-06-22T03:25:35;29.80;;;13.00;;
60873;SDS011;46715;40.642;-7.920;2023-06-22T03:27:36;27.45;;;12.80;;
60873;SDS011;46715;40.642;-7.920;2023-06-22T03:29:37;27.00;;;13.73;;
60873;SDS011;46715;40.642;-7.920;2023-06-22T03:31:38;31.80;;;13.07;;
60873;SDS011;46715;40.642;-7.920;2023-06-22T03:33:40;24.20;;;13.32;;
60873;SDS011;46715;40.642;-7.920;2023-06-22T03:35:41;34.67;;;14.35;;
60873;SDS011;46715;40.642;-7.920;2023-06-22T03:37:42;33.30;;;14.57;;
60873;SDS011;46715;40.642;-7.920;2023-06-22T03:39:43;31.67;;;13.63;;
60873;SDS011;46715;40.642;-7.920;2023-06-22T03:41:43;36.33;;;14.80;;
60873;SDS011;46715;40.642;-7.920;2023-06-22T03:43:44;63.13;;;15.40;;
60873;SDS011;46715;40.642;-7.920;2023-06-22T03:45:45;46.77;;;14.57;;
60873;SDS011;46715;40.642;-7.920;2023-06-22T03:47:46;64.55;;;16.98;;
60873;SDS011;46715;40.642;-7.920;2023-06-22T03:49:47;66.70;;;15.97;;
60873;SDS011;46715;40.642;-7.920;2023-06-22T03:51:48;58.17;;;16.37;;
60873;SDS011;46715;40.642;-7.920;2023-06-22T03:53:48;53.90;;;14.43;;
60873;SDS011;46715;40.642;-7.920;2023-06-22T03:55:52;64.37;;;15.00;;
60873;SDS011;46715;40.642;-7.920;2023-06-22T03:57:53;63.95;;;16.17;;
60873;SDS011;46715;40.642;-7.920;2023-06-22T03:59:57;47.85;;;16.13;;
60873;SDS011;46715;40.642;-7.920;2023-06-22T04:01:58;72.80;;;16.38;;
60873;SDS011;46715;40.642;-7.920;2023-06-22T04:03:58;81.17;;;17.83;;
60873;SDS011;46715;40.642;-7.920;2023-06-22T04:05:59;107.43;;;17.03;;
60873;SDS011;46715;40.642;-7.920;2023-06-22T04:08:00;150.97;;;18.60;;
60873;SDS011;46715;40.642;-7.920;2023-06-22T04:10:01;106.27;;;18.43;;
60873;SDS011;46715;40.642;-7.920;2023-06-22T04:12:01;119.73;;;16.20;;
60873;SDS011;46715;40.642;-7.920;2023-06-22T04:14:02;79.15;;;16.58;;
60873;SDS011;46715;40.642;-7.920;2023-06-22T04:16:03;107.97;;;14.83;;
60873;SDS011;46715;40.642;-7.920;2023-06-22T04:18:04;119.22;;;17.50;;
60873;SDS011;46715;40.642;-7.920;2023-06-22T04:20:05;55.20;;;14.57;;
60873;SDS011;46715;40.642;-7.920;2023-06-22T04:24:07;64.88;;;12.52;;
60873;SDS011;46715;40.642;-7.920;2023-06-22T04:26:09;47.70;;;12.95;;
60873;SDS011;46715;40.642;-7.920;2023-06-22T04:28:09;31.13;;;12.37;;
60873;SDS011;46715;40.642;-7.920;2023-06-22T04:30:12;43.70;;;12.07;;
60873;SDS011;46715;40.642;-7.920;2023-06-22T04:32:16;37.03;;;10.68;;
60873;SDS011;46715;40.642;-7.920;2023-06-22T04:34:17;31.23;;;11.05;;
60873;SDS011;46715;40.642;-7.920;2023-06-22T04:36:22;38.35;;;11.60;;
60873;SDS011;46715;40.642;-7.920;2023-06-22T04:38:23;42.92;;;12.43;;
60873;SDS011;46715;40.642;-7.920;2023-06-22T04:40:25;45.72;;;11.85;;
60873;SDS011;46715;40.642;-7.920;2023-06-22T04:42:25;51.47;;;12.87;;
60873;SDS011;46715;40.642;-7.920;2023-06-22T04:44:27;40.80;;;12.88;;
60873;SDS011;46715;40.642;-7.920;2023-06-22T04:46:28;63.47;;;13.60;;
60873;SDS011;46715;40.642;-7.920;2023-06-22T04:48:29;94.13;;;14.50;;
60873;SDS011;46715;40.642;-7.920;2023-06-22T04:50:33;74.03;;;12.77;;
60873;SDS011;46715;40.642;-7.920;2023-06-22T04:52:33;50.43;;;11.93;;
60873;SDS011;46715;40.642;-7.920;2023-06-22T04:54:35;41.43;;;11.83;;
60873;SDS011;46715;40.642;-7.920;2023-06-22T04:56:37;43.38;;;13.95;;
60873;SDS011;46715;40.642;-7.920;2023-06-22T04:58:41;38.78;;;13.38;;
60873;SDS011;46715;40.642;-7.920;2023-06-22T05:00:41;60.20;;;14.27;;
60873;SDS011;46715;40.642;-7.920;2023-06-22T05:02:45;59.63;;;12.65;;
60873;SDS011;46715;40.642;-7.920;2023-06-22T05:04:47;53.88;;;11.70;;
60873;SDS011;46715;40.642;-7.920;2023-06-22T05:06:51;55.25;;;12.15;;
60873;SDS011;46715;40.642;-7.920;2023-06-22T05:08:53;88.18;;;13.52;;
60873;SDS011;46715;40.642;-7.920;2023-06-22T05:10:57;151.40;;;15.13;;
60873;SDS011;46715;40.642;-7.920;2023-06-22T05:12:58;74.87;;;13.37;;
60873;SDS011;46715;40.642;-7.920;2023-06-22T05:14:58;121.53;;;13.90;;
60873;SDS011;46715;40.642;-7.920;2023-06-22T05:16:59;52.67;;;12.53;;
60873;SDS011;46715;40.642;-7.920;2023-06-22T05:19:04;80.93;;;13.52;;
60873;SDS011;46715;40.642;-7.920;2023-06-22T05:21:04;79.30;;;12.77;;
60873;SDS011;46715;40.642;-7.920;2023-06-22T05:23:05;33.97;;;11.50;;
60873;SDS011;46715;40.642;-7.920;2023-06-22T05:25:08;35.77;;;12.07;;
60873;SDS011;46715;40.642;-7.920;2023-06-22T05:27:09;64.30;;;12.98;;
60873;SDS011;46715;40.642;-7.920;2023-06-22T05:29:10;23.88;;;11.18;;
60873;SDS011;46715;40.642;-7.920;2023-06-22T05:31:14;30.77;;;11.27;;
60873;SDS011;46715;40.642;-7.920;2023-06-22T05:33:16;50.30;;;12.05;;
60873;SDS011;46715;40.642;-7.920;2023-06-22T05:35:17;127.10;;;13.63;;
60873;SDS011;46715;40.642;-7.920;2023-06-22T05:37:20;20.40;;;10.00;;
60873;SDS011;46715;40.642;-7.920;2023-06-22T05:39:21;16.83;;;8.77;;
60873;SDS011;46715;40.642;-7.920;2023-06-22T05:41:22;11.57;;;7.57;;
60873;SDS011;46715;40.642;-7.920;2023-06-22T05:43:23;15.53;;;8.10;;
60873;SDS011;46715;40.642;-7.920;2023-06-22T05:45:24;11.70;;;8.00;;
60873;SDS011;46715;40.642;-7.920;2023-06-22T05:47:25;11.33;;;7.93;;
60873;SDS011;46715;40.642;-7.920;2023-06-22T05:49:26;25.23;;;8.03;;
60873;SDS011;46715;40.642;-7.920;2023-06-22T05:51:32;26.13;;;7.85;;
60873;SDS011;46715;40.642;-7.920;2023-06-22T05:53:33;11.55;;;6.20;;
60873;SDS011;46715;40.642;-7.920;2023-06-22T05:55:34;11.60;;;6.27;;
60873;SDS011;46715;40.642;-7.920;2023-06-22T05:57:35;19.35;;;6.72;;
60873;SDS011;46715;40.642;-7.920;2023-06-22T05:59:36;14.03;;;6.93;;
60873;SDS011;46715;40.642;-7.920;2023-06-22T06:01:36;11.97;;;6.90;;
60873;SDS011;46715;40.642;-7.920;2023-06-22T06:03:37;28.70;;;8.63;;
60873;SDS011;46715;40.642;-7.920;2023-06-22T06:05:41;21.77;;;8.68;;
60873;SDS011;46715;40.642;-7.920;2023-06-22T06:07:42;20.73;;;8.57;;
60873;SDS011;46715;40.642;-7.920;2023-06-22T06:09:43;20.55;;;9.57;;
60873;SDS011;46715;40.642;-7.920;2023-06-22T06:11:44;28.07;;;9.20;;
60873;SDS011;46715;40.642;-7.920;2023-06-22T06:13:44;18.33;;;10.40;;
60873;SDS011;46715;40.642;-7.920;2023-06-22T06:15:45;32.80;;;10.30;;
60873;SDS011;46715;40.642;-7.920;2023-06-22T06:17:50;20.42;;;10.40;;
60873;SDS011;46715;40.642;-7.920;2023-06-22T06:19:53;20.02;;;10.60;;
60873;SDS011;46715;40.642;-7.920;2023-06-22T06:21:53;22.90;;;10.07;;
60873;SDS011;46715;40.642;-7.920;2023-06-22T06:23:54;60.10;;;11.90;;
60873;SDS011;46715;40.642;-7.920;2023-06-22T06:25:55;53.08;;;10.70;;
60873;SDS011;46715;40.642;-7.920;2023-06-22T06:27:56;23.80;;;9.07;;
60873;SDS011;46715;40.642;-7.920;2023-06-22T06:29:57;14.43;;;8.37;;
60873;SDS011;46715;40.642;-7.920;2023-06-22T06:31:57;16.67;;;8.93;;
60873;SDS011;46715;40.642;-7.920;2023-06-22T06:33:58;16.30;;;8.47;;
60873;SDS011;46715;40.642;-7.920;2023-06-22T06:35:59;17.23;;;9.90;;
60873;SDS011;46715;40.642;-7.920;2023-06-22T06:38:02;24.48;;;8.55;;
60873;SDS011;46715;40.642;-7.920;2023-06-22T06:40:09;21.27;;;8.80;;
60873;SDS011;46715;40.642;-7.920;2023-06-22T06:42:10;16.88;;;7.88;;
60873;SDS011;46715;40.642;-7.920;2023-06-22T06:44:11;49.40;;;8.57;;
60873;SDS011;46715;40.642;-7.920;2023-06-22T06:46:12;33.93;;;8.10;;
60873;SDS011;46715;40.642;-7.920;2023-06-22T06:48:12;62.33;;;9.33;;
60873;SDS011;46715;40.642;-7.920;2023-06-22T06:50:13;11.23;;;7.23;;
60873;SDS011;46715;40.642;-7.920;2023-06-22T06:52:14;17.07;;;7.80;;
60873;SDS011;46715;40.642;-7.920;2023-06-22T06:54:14;12.60;;;7.27;;
60873;SDS011;46715;40.642;-7.920;2023-06-22T06:56:15;47.30;;;9.40;;
60873;SDS011;46715;40.642;-7.920;2023-06-22T06:58:16;19.38;;;8.50;;
60873;SDS011;46715;40.642;-7.920;2023-06-22T07:00:17;65.67;;;10.93;;
60873;SDS011;46715;40.642;-7.920;2023-06-22T07:02:18;14.68;;;9.10;;
60873;SDS011;46715;40.642;-7.920;2023-06-22T07:06:21;27.50;;;10.27;;
60873;SDS011;46715;40.642;-7.920;2023-06-22T07:08:21;41.53;;;9.47;;
60873;SDS011;46715;40.642;-7.920;2023-06-22T07:10:22;110.47;;;12.57;;
60873;SDS011;46715;40.642;-7.920;2023-06-22T07:12:23;30.03;;;10.37;;
60873;SDS011;46715;40.642;-7.920;2023-06-22T07:14:24;62.07;;;11.73;;
60873;SDS011;46715;40.642;-7.920;2023-06-22T07:16:24;27.70;;;11.33;;
60873;SDS011;46715;40.642;-7.920;2023-06-22T07:18:28;24.70;;;12.57;;
60873;SDS011;46715;40.642;-7.920;2023-06-22T07:20:28;40.77;;;11.27;;
60873;SDS011;46715;40.642;-7.920;2023-06-22T07:22:29;37.33;;;11.40;;
60873;SDS011;46715;40.642;-7.920;2023-06-22T07:24:30;24.17;;;11.80;;
60873;SDS011;46715;40.642;-7.920;2023-06-22T07:26:33;40.97;;;14.90;;
60873;SDS011;46715;40.642;-7.920;2023-06-22T07:28:34;33.05;;;14.13;;
60873;SDS011;46715;40.642;-7.920;2023-06-22T07:30:38;26.33;;;15.18;;
60873;SDS011;46715;40.642;-7.920;2023-06-22T07:32:39;24.73;;;13.77;;
60873;SDS011;46715;40.642;-7.920;2023-06-22T07:34:40;32.17;;;13.00;;
60873;SDS011;46715;40.642;-7.920;2023-06-22T07:36:41;37.17;;;13.57;;
60873;SDS011;46715;40.642;-7.920;2023-06-22T07:38:42;52.60;;;14.43;;
60873;SDS011;46715;40.642;-7.920;2023-06-22T07:40:43;25.83;;;12.88;;
60873;SDS011;46715;40.642;-7.920;2023-06-22T07:42:44;22.70;;;13.77;;
60873;SDS011;46715;40.642;-7.920;2023-06-22T07:44:45;37.67;;;15.63;;
60873;SDS011;46715;40.642;-7.920;2023-06-22T07:46:45;55.37;;;16.70;;
60873;SDS011;46715;40.642;-7.920;2023-06-22T07:48:46;48.77;;;16.00;;
60873;SDS011;46715;40.642;-7.920;2023-06-22T07:50:47;82.00;;;18.90;;
60873;SDS011;46715;40.642;-7.920;2023-06-22T07:52:48;47.88;;;18.00;;
60873;SDS011;46715;40.642;-7.920;2023-06-22T07:54:49;37.43;;;17.23;;
60873;SDS011;46715;40.642;-7.920;2023-06-22T07:56:49;34.23;;;19.27;;
60873;SDS011;46715;40.642;-7.920;2023-06-22T07:58:50;34.90;;;20.03;;
60873;SDS011;46715;40.642;-7.920;2023-06-22T08:00:51;55.13;;;21.10;;
60873;SDS011;46715;40.642;-7.920;2023-06-22T08:02:52;46.70;;;21.77;;
60873;SDS011;46715;40.642;-7.920;2023-06-22T08:04:53;51.43;;;20.47;;
60873;SDS011;46715;40.642;-7.920;2023-06-22T08:06:54;105.97;;;21.20;;
60873;SDS011;46715;40.642;-7.920;2023-06-22T08:08:54;44.73;;;19.70;;
60873;SDS011;46715;40.642;-7.920;2023-06-22T08:10:57;38.20;;;17.30;;
60873;SDS011;46715;40.642;-7.920;2023-06-22T08:12:58;28.00;;;17.40;;
60873;SDS011;46715;40.642;-7.920;2023-06-22T08:14:59;35.63;;;16.17;;
60873;SDS011;46715;40.642;-7.920;2023-06-22T08:16:59;31.10;;;16.10;;
60873;SDS011;46715;40.642;-7.920;2023-06-22T08:19:01;67.68;;;18.80;;
60873;SDS011;46715;40.642;-7.920;2023-06-22T08:21:02;36.20;;;16.88;;
60873;SDS011;46715;40.642;-7.920;2023-06-22T08:23:03;30.35;;;18.08;;
60873;SDS011;46715;40.642;-7.920;2023-06-22T08:25:06;43.17;;;18.35;;
60873;SDS011;46715;40.642;-7.920;2023-06-22T08:29:12;52.22;;;19.50;;
60873;SDS011;46715;40.642;-7.920;2023-06-22T08:31:12;43.13;;;18.70;;
60873;SDS011;46715;40.642;-7.920;2023-06-22T08:33:14;28.30;;;18.10;;
60873;SDS011;46715;40.642;-7.920;2023-06-22T08:35:15;30.67;;;18.63;;
60873;SDS011;46715;40.642;-7.920;2023-06-22T08:37:15;28.00;;;18.37;;
60873;SDS011;46715;40.642;-7.920;2023-06-22T08:39:16;29.02;;;18.48;;
60873;SDS011;46715;40.642;-7.920;2023-06-22T08:41:17;27.77;;;18.60;;
60873;SDS011;46715;40.642;-7.920;2023-06-22T08:43:18;26.38;;;18.20;;
60873;SDS011;46715;40.642;-7.920;2023-06-22T08:45:19;27.73;;;18.10;;
60873;SDS011;46715;40.642;-7.920;2023-06-22T08:47:20;27.80;;;18.50;;
60873;SDS011;46715;40.642;-7.920;2023-06-22T08:49:21;29.70;;;18.63;;
60873;SDS011;46715;40.642;-7.920;2023-06-22T08:51:22;24.05;;;18.23;;
60873;SDS011;46715;40.642;-7.920;2023-06-22T08:53:25;26.58;;;18.17;;
60873;SDS011;46715;40.642;-7.920;2023-06-22T08:55:25;22.40;;;16.30;;
60873;SDS011;46715;40.642;-7.920;2023-06-22T08:57:26;26.43;;;18.73;;
60873;SDS011;46715;40.642;-7.920;2023-06-22T08:59:28;27.35;;;18.63;;
60873;SDS011;46715;40.642;-7.920;2023-06-22T09:01:29;28.30;;;17.67;;
60873;SDS011;46715;40.642;-7.920;2023-06-22T09:03:29;24.27;;;16.30;;
60873;SDS011;46715;40.642;-7.920;2023-06-22T09:05:30;28.73;;;17.10;;
60873;SDS011;46715;40.642;-7.920;2023-06-22T09:07:31;26.53;;;16.50;;
60873;SDS011;46715;40.642;-7.920;2023-06-22T09:09:31;28.53;;;16.17;;
60873;SDS011;46715;40.642;-7.920;2023-06-22T09:11:33;22.55;;;14.43;;
60873;SDS011;46715;40.642;-7.920;2023-06-22T09:13:34;23.02;;;13.20;;
60873;SDS011;46715;40.642;-7.920;2023-06-22T09:15:35;21.67;;;11.80;;
60873;SDS011;46715;40.642;-7.920;2023-06-22T09:17:36;22.70;;;13.27;;
60873;SDS011;46715;40.642;-7.920;2023-06-22T09:19:37;19.95;;;11.85;;
60873;SDS011;46715;40.642;-7.920;2023-06-22T09:21:40;21.48;;;12.45;;
60873;SDS011;46715;40.642;-7.920;2023-06-22T09:23:46;23.00;;;12.13;;
60873;SDS011;46715;40.642;-7.920;2023-06-22T09:25:51;20.80;;;13.88;;
60873;SDS011;46715;40.642;-7.920;2023-06-22T09:27:51;23.58;;;12.70;;
60873;SDS011;46715;40.642;-7.920;2023-06-22T09:29:52;18.87;;;12.20;;
60873;SDS011;46715;40.642;-7.920;2023-06-22T09:31:53;18.92;;;12.27;;
60873;SDS011;46715;40.642;-7.920;2023-06-22T09:33:56;21.80;;;11.85;;
60873;SDS011;46715;40.642;-7.920;2023-06-22T09:35:57;21.50;;;12.02;;
60873;SDS011;46715;40.642;-7.920;2023-06-22T09:37:57;19.27;;;11.63;;
60873;SDS011;46715;40.642;-7.920;2023-06-22T09:39:58;19.42;;;11.57;;
60873;SDS011;46715;40.642;-7.920;2023-06-22T09:41:59;18.73;;;11.15;;
60873;SDS011;46715;40.642;-7.920;2023-06-22T09:44:00;13.73;;;9.73;;
60873;SDS011;46715;40.642;-7.920;2023-06-22T09:46:01;16.92;;;10.50;;
60873;SDS011;46715;40.642;-7.920;2023-06-22T09:48:02;16.10;;;9.40;;
60873;SDS011;46715;40.642;-7.920;2023-06-22T09:50:03;17.60;;;9.88;;
60873;SDS011;46715;40.642;-7.920;2023-06-22T09:52:04;15.35;;;9.32;;
60873;SDS011;46715;40.642;-7.920;2023-06-22T09:54:05;14.32;;;9.63;;
60873;SDS011;46715;40.642;-7.920;2023-06-22T09:56:06;14.43;;;8.75;;
60873;SDS011;46715;40.642;-7.920;2023-06-22T09:58:06;15.38;;;9.40;;
60873;SDS011;46715;40.642;-7.920;2023-06-22T10:00:09;15.68;;;9.25;;
60873;SDS011;46715;40.642;-7.920;2023-06-22T10:02:13;14.30;;;9.65;;
60873;SDS011;46715;40.642;-7.920;2023-06-22T10:04:14;18.05;;;10.55;;
60873;SDS011;46715;40.642;-7.920;2023-06-22T10:06:14;13.40;;;9.27;;
60873;SDS011;46715;40.642;-7.920;2023-06-22T10:10:16;14.03;;;9.57;;
60873;SDS011;46715;40.642;-7.920;2023-06-22T10:12:18;13.65;;;8.57;;
60873;SDS011;46715;40.642;-7.920;2023-06-22T10:14:18;15.77;;;9.55;;
60873;SDS011;46715;40.642;-7.920;2023-06-22T10:16:19;15.27;;;10.18;;
60873;SDS011;46715;40.642;-7.920;2023-06-22T10:18:20;14.20;;;9.23;;
60873;SDS011;46715;40.642;-7.920;2023-06-22T10:22:22;14.38;;;8.63;;
60873;SDS011;46715;40.642;-7.920;2023-06-22T10:24:23;12.63;;;7.57;;
60873;SDS011;46715;40.642;-7.920;2023-06-22T10:26:23;14.55;;;8.63;;
60873;SDS011;46715;40.642;-7.920;2023-06-22T10:28:24;11.45;;;7.70;;
60873;SDS011;46715;40.642;-7.920;2023-06-22T10:32:25;12.50;;;7.57;;
60873;SDS011;46715;40.642;-7.920;2023-06-22T10:34:28;16.50;;;7.97;;
60873;SDS011;46715;40.642;-7.920;2023-06-22T10:36:28;12.93;;;7.78;;
60873;SDS011;46715;40.642;-7.920;2023-06-22T10:40:30;17.45;;;8.13;;
60873;SDS011;46715;40.642;-7.920;2023-06-22T10:44:32;10.00;;;7.23;;
60873;SDS011;46715;40.642;-7.920;2023-06-22T10:46:32;12.50;;;8.13;;
60873;SDS011;46715;40.642;-7.920;2023-06-22T10:48:33;11.93;;;7.28;;
60873;SDS011;46715;40.642;-7.920;2023-06-22T10:52:34;9.97;;;7.33;;
60873;SDS011;46715;40.642;-7.920;2023-06-22T10:56:36;9.88;;;7.03;;
60873;SDS011;46715;40.642;-7.920;2023-06-22T11:00:38;11.63;;;7.47;;
60873;SDS011;46715;40.642;-7.920;2023-06-22T11:04:42;14.65;;;7.65;;
60873;SDS011;46715;40.642;-7.920;2023-06-22T11:06:44;10.57;;;6.70;;
60873;SDS011;46715;40.642;-7.920;2023-06-22T11:09:09;9.18;;;6.53;;
60873;SDS011;46715;40.642;-7.920;2023-06-22T11:11:09;14.95;;;7.30;;
60873;SDS011;46715;40.642;-7.920;2023-06-22T11:15:10;12.23;;;7.30;;
60873;SDS011;46715;40.642;-7.920;2023-06-22T11:19:12;11.07;;;7.60;;
60873;SDS011;46715;40.642;-7.920;2023-06-22T11:23:13;9.60;;;6.47;;
60873;SDS011;46715;40.642;-7.920;2023-06-22T11:27:14;6.87;;;4.77;;
60873;SDS011;46715;40.642;-7.920;2023-06-22T11:29:15;9.65;;;6.53;;
60873;SDS011;46715;40.642;-7.920;2023-06-22T11:31:16;10.60;;;5.75;;
60873;SDS011;46715;40.642;-7.920;2023-06-22T11:35:18;7.70;;;5.80;;
60873;SDS011;46715;40.642;-7.920;2023-06-22T11:37:18;8.25;;;5.43;;
60873;SDS011;46715;40.642;-7.920;2023-06-22T11:39:19;14.55;;;5.15;;
60873;SDS011;46715;40.642;-7.920;2023-06-22T11:41:20;7.20;;;5.28;;
60873;SDS011;46715;40.642;-7.920;2023-06-22T11:43:21;9.35;;;5.80;;
60873;SDS011;46715;40.642;-7.920;2023-06-22T11:45:23;9.27;;;5.63;;
60873;SDS011;46715;40.642;-7.920;2023-06-22T11:47:25;8.25;;;5.55;;
60873;SDS011;46715;40.642;-7.920;2023-06-22T11:49:25;8.52;;;5.43;;
60873;SDS011;46715;40.642;-7.920;2023-06-22T11:51:26;8.90;;;5.32;;
60873;SDS011;46715;40.642;-7.920;2023-06-22T11:53:27;8.27;;;5.47;;
60873;SDS011;46715;40.642;-7.920;2023-06-22T11:55:27;8.07;;;5.22;;
60873;SDS011;46715;40.642;-7.920;2023-06-22T11:57:29;8.25;;;4.82;;
60873;SDS011;46715;40.642;-7.920;2023-06-22T11:59:30;6.60;;;5.28;;
60873;SDS011;46715;40.642;-7.920;2023-06-22T12:01:31;9.43;;;5.15;;
60873;SDS011;46715;40.642;-7.920;2023-06-22T12:03:33;7.70;;;5.00;;
60873;SDS011;46715;40.642;-7.920;2023-06-22T12:05:34;8.40;;;4.85;;
60873;SDS011;46715;40.642;-7.920;2023-06-22T12:07:35;11.00;;;4.90;;
60873;SDS011;46715;40.642;-7.920;2023-06-22T12:09:35;8.45;;;4.80;;
60873;SDS011;46715;40.642;-7.920;2023-06-22T12:11:36;8.60;;;4.60;;
60873;SDS011;46715;40.642;-7.920;2023-06-22T12:13:37;4.80;;;3.90;;
60873;SDS011;46715;40.642;-7.920;2023-06-22T12:15:37;10.45;;;4.35;;
60873;SDS011;46715;40.642;-7.920;2023-06-22T12:17:38;7.22;;;4.65;;
60873;SDS011;46715;40.642;-7.920;2023-06-22T12:19:39;7.20;;;4.43;;
60873;SDS011;46715;40.642;-7.920;2023-06-22T12:21:39;7.63;;;4.68;;
60873;SDS011;46715;40.642;-7.920;2023-06-22T12:25:41;5.70;;;3.97;;
60873;SDS011;46715;40.642;-7.920;2023-06-22T12:27:42;6.93;;;4.18;;
60873;SDS011;46715;40.642;-7.920;2023-06-22T12:29:47;6.85;;;4.03;;
60873;SDS011;46715;40.642;-7.920;2023-06-22T12:31:48;6.47;;;3.90;;
60873;SDS011;46715;40.642;-7.920;2023-06-22T12:33:48;6.95;;;4.53;;
60873;SDS011;46715;40.642;-7.920;2023-06-22T12:35:49;5.70;;;4.10;;
60873;SDS011;46715;40.642;-7.920;2023-06-22T12:37:49;6.60;;;3.80;;